Vicki Lynn — WDG2326 — position and weather

sailwx.info

Track history (hours):
 
Tides and Currents Weather Stations Pressure Air Temp Water Temp Dewpoint Dewpoint Depression Visibility Wind Speed Wind Dir Waves Ship Positions

Vicki Lynn

Owner: T K TOWING, INC, MORGAN CITY, LA. More information available from US FCC via Universal Licensing System and Coast Guard Vessel Documentation Center.

Last reported at 2017-Oct-22 01:17 UTC. Time now 2017-Nov-19 05:05 UTC.
Position N 30°04' W 093°39'.
Warning: this ship's position is 28 days out of date.

Length 18 m; draft 2.2 m.

Type: Towing. MMSI: 367514520.

Date/timePositionNaut miles runAvg speedWind from/ knotsBaromVisibWave heightAir tempDewpointWater temp
2017-Oct-22 01:17N 30°04' W 093°39'2 5.7
2017-Oct-22 01:01N 30°04' W 093°37'3 5.9
2017-Oct-22 00:30N 30°04' W 093°33'3 5.9
2017-Oct-22 00:00N 30°04' W 093°30'3 5.9
2017-Oct-21 23:30N 30°04' W 093°27'3 6.0
2017-Oct-21 23:00N 30°04' W 093°23'3 5.2
2017-Oct-21 22:31N 30°05' W 093°20'2 4.5
2017-Oct-21 22:00N 30°06' W 093°18'2 3.6
2017-Oct-21 21:30N 30°05' W 093°17'1 1.1
2017-Oct-21 21:01N 30°04' W 093°16'0 0.6
2017-Oct-21 20:31N 30°04' W 093°16'0 0.0
2017-Oct-21 20:00N 30°04' W 093°16'0 0.0
2017-Oct-21 19:31N 30°04' W 093°16'0 0.0
2017-Oct-21 19:01N 30°04' W 093°16'0 0.0
2017-Oct-21 18:31N 30°04' W 093°16'0 0.0
2017-Oct-21 18:00N 30°04' W 093°16'0 0.0
2017-Oct-21 17:31N 30°04' W 093°16'0 0.0
2017-Oct-21 17:01N 30°04' W 093°16'0 0.0
2017-Oct-21 16:30N 30°04' W 093°16'0 0.0
2017-Oct-21 16:00N 30°04' W 093°16'0 0.0
2017-Oct-21 15:31N 30°04' W 093°16'0 0.0
2017-Oct-21 15:01N 30°04' W 093°16'0 0.0
2017-Oct-21 14:00N 30°04' W 093°16'0 0.0
2017-Oct-21 13:30N 30°04' W 093°16'1 1.9
2017-Oct-21 13:00N 30°03' W 093°16'1 1.9
2017-Oct-21 12:30N 30°02' W 093°15'2 4.6
2017-Oct-21 12:00N 30°00' W 093°14'1 1.4
2017-Oct-21 11:30N 29°60' W 093°13'2 4.8
2017-Oct-21 11:00N 29°58' W 093°11'4 5.1
2017-Oct-21 10:09N 29°56' W 093°07'1 5.7
2017-Oct-21 10:00N 29°56' W 093°06'40 5.3
2017-Oct-21 02:31N 29°51' W 092°20'2 5.6
2017-Oct-21 02:12N 29°50' W 092°18'1 5.4
2017-Oct-21 02:00N 29°49' W 092°18'3 5.6
2017-Oct-21 01:31N 29°48' W 092°15'2 4.5
2017-Oct-21 01:01N 29°47' W 092°12'1 1.7
2017-Oct-21 00:31N 29°47' W 092°11'0 0.7
2017-Oct-21 00:01N 29°47' W 092°11'0 0.7
2017-Oct-20 23:30N 29°47' W 092°11'3 5.5
2017-Oct-20 23:00N 29°47' W 092°08'3 5.8
2017-Oct-20 22:30N 29°48' W 092°05'59 4.3
2017-Oct-20 08:53N 29°36' W 090°58'3 5.6
2017-Oct-20 08:18N 29°34' W 090°56'3 5.9
2017-Oct-20 07:45N 29°32' W 090°53'2 5.9
2017-Oct-20 07:27N 29°32' W 090°51'3 6.1
2017-Oct-20 07:00N 29°32' W 090°47'3 5.2
2017-Oct-20 06:30N 29°34' W 090°45'2 4.9
2017-Oct-20 06:01N 29°35' W 090°43'2 3.7
2017-Oct-20 05:30N 29°37' W 090°42'1 2.3
2017-Oct-20 05:00N 29°36' W 090°41'2 3.3
2017-Oct-20 04:31N 29°36' W 090°39'2 4.6
2017-Oct-20 04:00N 29°35' W 090°37'3 5.2
2017-Oct-20 03:30N 29°34' W 090°34'1 0.0
2017-Oct-18 19:27N 29°34' W 090°32'3 6.4
2017-Oct-18 19:00N 29°35' W 090°35'3 5.9
2017-Oct-18 18:30N 29°35' W 090°39'3 5.4
2017-Oct-18 18:00N 29°37' W 090°41'2 4.7
2017-Oct-18 17:30N 29°35' W 090°43'1 2.0
2017-Oct-18 17:00N 29°34' W 090°44'3 5.4
2017-Oct-18 16:30N 29°32' W 090°46'3 7.0
2017-Oct-18 16:00N 29°32' W 090°50'4 6.7
2017-Oct-18 15:26N 29°33' W 090°54'  
2017-Oct-13 23:20N 29°36' W 090°58'4 7.8
2017-Oct-13 22:49N 29°33' W 090°55'3 7.9
2017-Oct-13 22:27N 29°32' W 090°51'3 7.7
2017-Oct-13 22:00N 29°32' W 090°48'3 6.3
2017-Oct-13 21:30N 29°34' W 090°44'1 2.6
2017-Oct-13 21:00N 29°34' W 090°43'0 0.0
2017-Oct-13 20:30N 29°34' W 090°43'0 0.0
2017-Oct-13 20:00N 29°34' W 090°43'0 0.0
2017-Oct-13 19:30N 29°34' W 090°43'3 6.0
2017-Oct-13 19:00N 29°31' W 090°42'4 7.9
2017-Oct-13 18:30N 29°27' W 090°43'3 0.2
2017-Oct-13 05:23N 29°25' W 090°44'3 7.1
2017-Oct-13 05:00N 29°27' W 090°43'4 7.8
2017-Oct-13 04:30N 29°31' W 090°42'3 6.2
2017-Oct-13 04:00N 29°34' W 090°43'3 6.5
2017-Oct-13 03:30N 29°32' W 090°46'4 7.8
2017-Oct-13 02:58N 29°32' W 090°51'3 7.4
2017-Oct-13 02:30N 29°33' W 090°55'  
Track history (hours):
 
Tides and Currents Weather Stations Pressure Air Temp Water Temp Dewpoint Dewpoint Depression Visibility Wind Speed Wind Dir Waves Ship Positions

Vicki Lynn

Owner: T K TOWING, INC, MORGAN CITY, LA. More information available from US FCC via Universal Licensing System and Coast Guard Vessel Documentation Center.

Last reported at 2017-Oct-22 01:17 UTC. Time now 2017-Nov-19 05:05 UTC.
Position N 30°04' W 093°39'.
Warning: this ship's position is 28 days out of date.

Length 18 m; draft 2.2 m.

Type: Towing. MMSI: 367514520.

Date/timePositionNaut miles runAvg speedWind from/ knotsBaromVisibWave heightAir tempDewpointWater temp
2017-Oct-22 01:17N 30°04' W 093°39'2 5.7
2017-Oct-22 01:01N 30°04' W 093°37'3 5.9
2017-Oct-22 00:30N 30°04' W 093°33'3 5.9
2017-Oct-22 00:00N 30°04' W 093°30'3 5.9
2017-Oct-21 23:30N 30°04' W 093°27'3 6.0
2017-Oct-21 23:00N 30°04' W 093°23'3 5.2
2017-Oct-21 22:31N 30°05' W 093°20'2 4.5
2017-Oct-21 22:00N 30°06' W 093°18'2 3.6
2017-Oct-21 21:30N 30°05' W 093°17'1 1.1
2017-Oct-21 21:01N 30°04' W 093°16'0 0.6
2017-Oct-21 20:31N 30°04' W 093°16'0 0.0
2017-Oct-21 20:00N 30°04' W 093°16'0 0.0
2017-Oct-21 19:31N 30°04' W 093°16'0 0.0
2017-Oct-21 19:01N 30°04' W 093°16'0 0.0
2017-Oct-21 18:31N 30°04' W 093°16'0 0.0
2017-Oct-21 18:00N 30°04' W 093°16'0 0.0
2017-Oct-21 17:31N 30°04' W 093°16'0 0.0
2017-Oct-21 17:01N 30°04' W 093°16'0 0.0
2017-Oct-21 16:30N 30°04' W 093°16'0 0.0
2017-Oct-21 16:00N 30°04' W 093°16'0 0.0
2017-Oct-21 15:31N 30°04' W 093°16'0 0.0
2017-Oct-21 15:01N 30°04' W 093°16'0 0.0
2017-Oct-21 14:00N 30°04' W 093°16'0 0.0
2017-Oct-21 13:30N 30°04' W 093°16'1 1.9
2017-Oct-21 13:00N 30°03' W 093°16'1 1.9
2017-Oct-21 12:30N 30°02' W 093°15'2 4.6
2017-Oct-21 12:00N 30°00' W 093°14'1 1.4
2017-Oct-21 11:30N 29°60' W 093°13'2 4.8
2017-Oct-21 11:00N 29°58' W 093°11'4 5.1
2017-Oct-21 10:09N 29°56' W 093°07'1 5.7
2017-Oct-21 10:00N 29°56' W 093°06'40 5.3
2017-Oct-21 02:31N 29°51' W 092°20'2 5.6
2017-Oct-21 02:12N 29°50' W 092°18'1 5.4
2017-Oct-21 02:00N 29°49' W 092°18'3 5.6
2017-Oct-21 01:31N 29°48' W 092°15'2 4.5
2017-Oct-21 01:01N 29°47' W 092°12'1 1.7
2017-Oct-21 00:31N 29°47' W 092°11'0 0.7
2017-Oct-21 00:01N 29°47' W 092°11'0 0.7
2017-Oct-20 23:30N 29°47' W 092°11'3 5.5
2017-Oct-20 23:00N 29°47' W 092°08'3 5.8
2017-Oct-20 22:30N 29°48' W 092°05'59 4.3
2017-Oct-20 08:53N 29°36' W 090°58'3 5.6
2017-Oct-20 08:18N 29°34' W 090°56'3 5.9
2017-Oct-20 07:45N 29°32' W 090°53'2 5.9
2017-Oct-20 07:27N 29°32' W 090°51'3 6.1
2017-Oct-20 07:00N 29°32' W 090°47'3 5.2
2017-Oct-20 06:30N 29°34' W 090°45'2 4.9
2017-Oct-20 06:01N 29°35' W 090°43'2 3.7
2017-Oct-20 05:30N 29°37' W 090°42'1 2.3
2017-Oct-20 05:00N 29°36' W 090°41'2 3.3
2017-Oct-20 04:31N 29°36' W 090°39'2 4.6
2017-Oct-20 04:00N 29°35' W 090°37'3 5.2
2017-Oct-20 03:30N 29°34' W 090°34'1 0.0
2017-Oct-18 19:27N 29°34' W 090°32'3 6.4
2017-Oct-18 19:00N 29°35' W 090°35'3 5.9
2017-Oct-18 18:30N 29°35' W 090°39'3 5.4
2017-Oct-18 18:00N 29°37' W 090°41'2 4.7
2017-Oct-18 17:30N 29°35' W 090°43'1 2.0
2017-Oct-18 17:00N 29°34' W 090°44'3 5.4
2017-Oct-18 16:30N 29°32' W 090°46'3 7.0
2017-Oct-18 16:00N 29°32' W 090°50'4 6.7
2017-Oct-18 15:26N 29°33' W 090°54'  
2017-Oct-13 23:20N 29°36' W 090°58'4 7.8
2017-Oct-13 22:49N 29°33' W 090°55'3 7.9
2017-Oct-13 22:27N 29°32' W 090°51'3 7.7
2017-Oct-13 22:00N 29°32' W 090°48'3 6.3
2017-Oct-13 21:30N 29°34' W 090°44'1 2.6
2017-Oct-13 21:00N 29°34' W 090°43'0 0.0
2017-Oct-13 20:30N 29°34' W 090°43'0 0.0
2017-Oct-13 20:00N 29°34' W 090°43'0 0.0
2017-Oct-13 19:30N 29°34' W 090°43'3 6.0
2017-Oct-13 19:00N 29°31' W 090°42'4 7.9
2017-Oct-13 18:30N 29°27' W 090°43'3 0.2
2017-Oct-13 05:23N 29°25' W 090°44'3 7.1
2017-Oct-13 05:00N 29°27' W 090°43'4 7.8
2017-Oct-13 04:30N 29°31' W 090°42'3 6.2
2017-Oct-13 04:00N 29°34' W 090°43'3 6.5
2017-Oct-13 03:30N 29°32' W 090°46'4 7.8
2017-Oct-13 02:58N 29°32' W 090°51'3 7.4
2017-Oct-13 02:30N 29°33' W 090°55'  

Dump ship's entire track history